createdAt,value
2024-01-04T00:00:22.381Z,81.45751953
2024-01-04T00:01:54.553Z,81.76269531
2024-01-04T00:02:56.208Z,81.5612793
2024-01-04T00:03:56.927Z,81.5612793
2024-01-04T00:04:58.586Z,81.45751953
2024-01-04T00:06:01.424Z,81.04858398
2024-01-04T00:08:04.497Z,80.73730469
2024-01-04T00:10:04.461Z,80.84106445
2024-01-04T00:11:05.104Z,80.73730469
2024-01-04T00:12:06.715Z,80.73730469
2024-01-04T00:13:27.693Z,80.73730469
2024-01-04T00:15:10.028Z,80.73730469
2024-01-04T00:16:10.838Z,80.63354492
2024-01-04T00:17:12.110Z,80.52978516
2024-01-04T00:18:13.241Z,80.73730469
2024-01-04T00:19:17.322Z,80.42602539
2024-01-04T00:21:16.574Z,80.52978516
2024-01-04T00:22:18.132Z,80.52978516
2024-01-04T00:23:18.914Z,80.32836914
2024-01-04T00:24:19.688Z,80.32836914
2024-01-04T00:25:21.701Z,80.12084961
2024-01-04T00:26:22.235Z,80.12084961
2024-01-04T00:27:53.528Z,79.80957031
2024-01-04T00:28:54.160Z,79.77294922
2024-01-04T00:29:55.695Z,79.5715332
2024-01-04T00:30:56.861Z,79.77294922
2024-01-04T00:31:57.054Z,79.46777344
2024-01-04T00:32:58.656Z,79.66918945
2024-01-04T00:33:59.321Z,79.77294922
2024-01-04T00:35:00.792Z,80.18798828
2024-01-04T00:36:01.521Z,80.18798828
2024-01-04T00:37:02.505Z,80.3894043
2024-01-04T00:38:03.868Z,80.18798828
2024-01-04T00:39:05.694Z,80.80444336
2024-01-04T00:40:06.217Z,81.72607422
2024-01-04T00:41:06.936Z,81.82983398
2024-01-04T00:42:08.756Z,81.21337891
2024-01-04T00:43:10.262Z,81.66503906
2024-01-04T00:44:10.935Z,81.62231445
2024-01-04T00:45:12.629Z,82.07397461
2024-01-04T00:46:13.065Z,82.48291016
2024-01-04T00:47:13.652Z,82.38525391
2024-01-04T00:48:15.069Z,81.97021484
2024-01-04T00:49:15.418Z,82.28149414
2024-01-04T00:50:17.308Z,82.38525391
2024-01-04T00:51:18.578Z,82.89794922
2024-01-04T00:52:20.153Z,83.00170898
2024-01-04T00:53:20.633Z,83.30688477
2024-01-04T00:54:29.137Z,83.10546875
2024-01-04T00:55:53.686Z,83.72192383
2024-01-04T00:56:55.366Z,83.82568359
2024-01-04T00:57:55.852Z,84.44213867
2024-01-04T00:58:56.518Z,84.85107422
2024-01-04T00:59:57.897Z,85.36376953
2024-01-04T01:00:58.614Z,86.23046875
2024-01-04T01:01:59.259Z,86.33422852
2024-01-04T01:03:00.664Z,86.02294922
2024-01-04T01:04:01.252Z,86.12670898
2024-01-04T01:05:06.834Z,85.40649414
2024-01-04T01:07:04.806Z,85.51025391
2024-01-04T01:08:05.722Z,85.30273438
2024-01-04T01:09:07.162Z,84.88769531
2024-01-04T01:10:10.752Z,84.06982422
2024-01-04T01:12:10.166Z,83.96606445
2024-01-04T01:13:10.792Z,83.65478516
2024-01-04T01:14:14.204Z,82.69042969
2024-01-04T01:16:13.952Z,82.28149414
2024-01-04T01:17:14.582Z,81.35375977
2024-01-04T01:18:15.342Z,81.25
2024-01-04T01:19:16.953Z,81.14624023
2024-01-04T01:20:18.134Z,81.00585938
2024-01-04T01:21:19.056Z,80.42602539
2024-01-04T01:22:20.596Z,80.52978516
2024-01-04T01:23:21.668Z,80.18798828
2024-01-04T01:24:53.804Z,79.98046875
2024-01-04T01:25:54.407Z,79.46777344
2024-01-04T01:26:55.054Z,79.05273438
2024-01-04T01:27:55.856Z,79.15649414
2024-01-04T01:28:57.496Z,79.26025391
2024-01-04T01:29:58.461Z,79.66918945
2024-01-04T01:30:59.612Z,81.00585938
2024-01-04T01:32:00.483Z,81.21337891
2024-01-04T01:33:02.186Z,81.35375977
2024-01-04T01:34:03.155Z,83.203125
2024-01-04T01:35:04.146Z,83.61816406
2024-01-04T01:36:04.933Z,84.375
2024-01-04T01:37:06.806Z,84.72290039
2024-01-04T01:39:07.564Z,85.546875
2024-01-04T01:40:08.244Z,85.96191406
2024-01-04T01:41:09.621Z,86.05957031
2024-01-04T01:42:10.284Z,86.16333008
2024-01-04T01:43:11.573Z,86.57836914
2024-01-04T01:44:12.134Z,86.37084961
2024-01-04T01:45:14.129Z,86.98730469
2024-01-04T01:46:14.676Z,87.19482422
2024-01-04T01:47:15.293Z,86.68212891
2024-01-04T01:48:16.530Z,86.57836914
2024-01-04T01:49:17.093Z,85.75439453
2024-01-04T01:50:17.447Z,85.96191406
2024-01-04T01:51:18.110Z,85.96191406
2024-01-04T01:52:19.593Z,85.96191406
2024-01-04T01:53:20.763Z,85.71166992
2024-01-04T01:54:22.109Z,83.75854492
2024-01-04T01:55:54.085Z,83.75854492
2024-01-04T01:56:54.669Z,83.44726563
2024-01-04T01:57:55.605Z,82.93457031
2024-01-04T01:58:56.201Z,82.62939453
2024-01-04T01:59:57.099Z,82.21435547
2024-01-04T02:00:58.637Z,82.31811523
2024-01-04T02:01:59.558Z,81.80541992
2024-01-04T02:03:00.961Z,81.90917969
2024-01-04T02:04:01.536Z,81.39038086
2024-01-04T02:05:02.165Z,81.66503906
2024-01-04T02:06:03.609Z,81.86645508
2024-01-04T02:07:05.259Z,82.17773438
2024-01-04T02:08:05.792Z,82.00683594
2024-01-04T02:09:48.357Z,81.14624023
2024-01-04T02:11:12.029Z,80.94482422
2024-01-04T02:13:10.246Z,80.94482422
2024-01-04T02:14:11.760Z,81.14624023
2024-01-04T02:15:12.986Z,80.94482422
2024-01-04T02:16:14.697Z,81.45751953
2024-01-04T02:17:15.188Z,81.5612793
2024-01-04T02:18:16.786Z,81.59790039
2024-01-04T02:19:17.462Z,81.90917969
2024-01-04T02:20:18.015Z,81.70166016
2024-01-04T02:21:18.830Z,81.70166016
2024-01-04T02:22:20.098Z,81.70166016
2024-01-04T02:23:20.864Z,81.90917969
2024-01-04T02:24:52.060Z,82.00683594
2024-01-04T02:25:53.630Z,82.31811523
2024-01-04T02:26:54.414Z,82.21435547
2024-01-04T02:27:56.365Z,82.00683594
2024-01-04T02:28:56.900Z,82.21435547
2024-01-04T02:29:57.455Z,82.21435547
2024-01-04T02:30:59.653Z,82.52563477
2024-01-04T02:33:00.817Z,81.90917969
2024-01-04T02:34:01.516Z,81.84204102
2024-01-04T02:35:03.172Z,81.84204102
2024-01-04T02:36:04.423Z,82.00683594
2024-01-04T02:37:04.882Z,82.15332031
2024-01-04T02:38:06.808Z,81.63452148
2024-01-04T02:39:07.439Z,82.04956055
2024-01-04T02:40:09.342Z,82.04956055
2024-01-04T02:41:09.851Z,82.45849609
2024-01-04T02:42:11.355Z,82.76977539
2024-01-04T02:43:12.038Z,83.2824707
2024-01-04T02:44:13.057Z,83.07495117
2024-01-04T02:45:13.304Z,83.3190918
2024-01-04T02:46:14.474Z,83.59375
2024-01-04T02:47:19.109Z,83.17871094
2024-01-04T02:49:16.853Z,83.17871094
2024-01-04T02:50:17.114Z,83.2824707
2024-01-04T02:51:18.065Z,83.48999023
2024-01-04T02:52:19.640Z,83.38623047
2024-01-04T02:53:20.542Z,83.79516602
2024-01-04T02:54:51.962Z,84.00268555
2024-01-04T02:55:53.554Z,84.00268555
2024-01-04T02:56:54.915Z,84.51538086
2024-01-04T02:57:56.642Z,84.61914063
2024-01-04T02:58:57.250Z,84.41772461
2024-01-04T02:59:58.298Z,84.51538086
2024-01-04T03:00:59.664Z,84.41772461
2024-01-04T03:02:00.399Z,84.10644531
2024-01-04T03:03:08.517Z,83.89892578
2024-01-04T03:05:08.234Z,83.38623047
2024-01-04T03:07:04.955Z,83.17871094
2024-01-04T03:08:15.448Z,82.97119141
2024-01-04T03:10:07.773Z,83.2824707
2024-01-04T03:11:08.624Z,83.2824707
2024-01-04T03:12:09.714Z,83.38623047
2024-01-04T03:13:12.448Z,83.17871094
2024-01-04T03:15:12.829Z,82.87353516
2024-01-04T03:16:14.971Z,82.1105957
2024-01-04T03:18:15.327Z,81.80541992
2024-01-04T03:19:15.954Z,81.49414063
2024-01-04T03:20:16.531Z,81.70166016
2024-01-04T03:21:17.140Z,81.59790039
2024-01-04T03:22:19.649Z,81.49414063
2024-01-04T03:24:19.914Z,81.08520508
2024-01-04T03:25:21.634Z,80.67016602
2024-01-04T03:26:54.144Z,80.46875
2024-01-04T03:27:55.840Z,80.05371094
2024-01-04T03:28:56.462Z,79.84619141
2024-01-04T03:29:57.818Z,79.33349609
2024-01-04T03:31:19.332Z,78.92456055
2024-01-04T03:33:01.898Z,78.82080078
2024-01-04T03:34:03.380Z,78.40576172
2024-01-04T03:35:03.321Z,78.30200195
2024-01-04T03:36:04.887Z,78.2043457
2024-01-04T03:37:05.505Z,78.2043457
2024-01-04T03:38:11.948Z,77.85644531
2024-01-04T03:40:08.489Z,77.55126953
2024-01-04T03:41:09.289Z,77.34375
2024-01-04T03:42:10.728Z,77.44750977
2024-01-04T03:43:11.492Z,77.55126953
2024-01-04T03:44:12.643Z,77.13623047
2024-01-04T03:45:13.865Z,77.0324707
2024-01-04T03:46:17.869Z,76.83105469
2024-01-04T03:47:17.036Z,76.62353516
2024-01-04T03:48:19.033Z,76.51977539
2024-01-04T03:49:20.169Z,76.72729492
2024-01-04T03:50:52.668Z,76.83105469
2024-01-04T03:51:53.908Z,77.0324707
2024-01-04T03:52:55.800Z,77.34375
2024-01-04T03:53:56.850Z,77.44750977
2024-01-04T03:54:57.738Z,76.96533203
2024-01-04T03:55:59.549Z,76.83105469
2024-01-04T03:57:00.537Z,76.72729492
2024-01-04T03:58:01.570Z,76.83105469
2024-01-04T03:59:02.377Z,76.31225586
2024-01-04T04:00:03.485Z,76.31225586
2024-01-04T04:01:09.525Z,76.31225586
2024-01-04T04:03:06.773Z,76.51977539
2024-01-04T04:04:08.438Z,76.31225586
2024-01-04T04:05:09.196Z,76.41601563
2024-01-04T04:06:10.975Z,76.51977539
2024-01-04T04:07:11.705Z,76.72729492
2024-01-04T04:08:13.155Z,76.51977539
2024-01-04T04:09:13.857Z,76.72729492
2024-01-04T04:10:14.800Z,77.23999023
2024-01-04T04:11:15.512Z,77.23999023
2024-01-04T04:12:17.268Z,77.13623047
2024-01-04T04:13:17.993Z,77.55126953
2024-01-04T04:14:18.701Z,78.06396484
2024-01-04T04:15:20.529Z,78.82080078
2024-01-04T04:16:52.049Z,79.54101563
2024-01-04T04:17:52.877Z,79.54101563
2024-01-04T04:18:54.297Z,79.84619141
2024-01-04T04:19:54.942Z,80.1574707
2024-01-04T04:20:55.646Z,80.98144531
2024-01-04T04:21:56.091Z,81.70166016
2024-01-04T04:22:57.582Z,82.1105957
2024-01-04T04:23:58.235Z,82.421875
2024-01-04T04:24:59.046Z,82.83081055
2024-01-04T04:25:59.578Z,83.14208984
2024-01-04T04:27:01.227Z,83.65478516
2024-01-04T04:28:02.351Z,84.10644531
2024-01-04T04:29:03.021Z,84.61914063
2024-01-04T04:30:03.999Z,84.82666016
2024-01-04T04:31:05.578Z,85.03417969
2024-01-04T04:32:06.545Z,84.72290039
2024-01-04T04:33:07.177Z,84.10644531
2024-01-04T04:34:07.930Z,83.89892578
2024-01-04T04:35:08.603Z,83.69750977
2024-01-04T04:36:10.183Z,83.48999023
2024-01-04T04:37:10.910Z,83.38623047
2024-01-04T04:38:12.547Z,83.59375
2024-01-04T04:39:13.469Z,83.69750977
2024-01-04T04:40:15.867Z,83.48999023
2024-01-04T04:41:14.595Z,83.79516602
2024-01-04T04:42:16.134Z,83.89892578
2024-01-04T04:43:17.655Z,83.79516602
2024-01-04T04:44:18.363Z,83.89892578
2024-01-04T04:45:19.230Z,83.48999023
2024-01-04T04:46:51.812Z,83.48999023
2024-01-04T04:47:52.716Z,83.79516602
2024-01-04T04:48:53.287Z,84.00268555
2024-01-04T04:49:54.749Z,83.89892578
2024-01-04T04:50:55.650Z,83.79516602
2024-01-04T04:51:56.057Z,83.59375
2024-01-04T04:52:57.603Z,83.59375
2024-01-04T04:53:58.125Z,83.38623047
2024-01-04T04:54:58.979Z,82.97119141
2024-01-04T04:55:59.721Z,82.87353516
2024-01-04T04:57:01.456Z,82.87353516
2024-01-04T04:58:02.111Z,82.76977539
2024-01-04T04:59:02.943Z,83.07495117
2024-01-04T05:00:03.743Z,83.2824707
2024-01-04T05:01:05.374Z,83.07495117
2024-01-04T05:02:06.690Z,82.76977539
2024-01-04T05:03:07.562Z,82.66601563
2024-01-04T05:04:08.259Z,82.45849609
2024-01-04T05:05:08.792Z,82.04956055
2024-01-04T05:06:09.789Z,81.94580078
2024-01-04T05:07:10.844Z,81.63452148
2024-01-04T05:08:11.829Z,81.53076172
2024-01-04T05:09:14.492Z,81.12182617
2024-01-04T05:10:14.525Z,81.01806641
2024-01-04T05:11:15.055Z,80.70678711
2024-01-04T05:12:16.584Z,80.50537109
2024-01-04T05:13:17.845Z,80.1940918
2024-01-04T05:14:18.608Z,80.1940918
2024-01-04T05:15:19.741Z,80.09033203
2024-01-04T05:16:51.438Z,79.8828125
2024-01-04T05:17:52.138Z,79.8828125
2024-01-04T05:18:53.444Z,80.29785156
2024-01-04T05:19:54.288Z,80.50537109
2024-01-04T05:20:55.611Z,79.98657227
2024-01-04T05:21:56.466Z,80.05371094
2024-01-04T05:22:57.129Z,80.1940918
2024-01-04T05:23:58.497Z,80.09033203
2024-01-04T05:24:59.071Z,78.96118164
2024-01-04T05:25:59.573Z,79.47387695
2024-01-04T05:27:01.122Z,79.68139648
2024-01-04T05:28:02.671Z,79.37011719
2024-01-04T05:29:03.868Z,79.47387695
2024-01-04T05:30:04.871Z,79.37011719
2024-01-04T05:31:06.123Z,79.16259766
2024-01-04T05:32:07.144Z,79.02832031
2024-01-04T05:33:08.300Z,78.71704102
2024-01-04T05:34:09.116Z,78.82080078
2024-01-04T05:35:10.096Z,78.50952148
2024-01-04T05:36:11.106Z,78.50952148
2024-01-04T05:37:15.969Z,78.50952148
2024-01-04T05:39:14.415Z,78.71704102
2024-01-04T05:40:15.136Z,78.82080078
2024-01-04T05:41:16.231Z,78.61328125
2024-01-04T05:42:18.008Z,78.61328125
2024-01-04T05:43:18.906Z,78.40576172
2024-01-04T05:44:49.858Z,78.30200195
2024-01-04T05:45:54.665Z,78.40576172
2024-01-04T05:47:52.927Z,78.2043457
2024-01-04T05:48:54.009Z,77.89306641
2024-01-04T05:49:54.836Z,78.10058594
2024-01-04T05:50:56.134Z,77.89306641
2024-01-04T05:51:56.646Z,77.58178711
2024-01-04T05:52:57.455Z,77.89306641
2024-01-04T05:53:58.204Z,77.89306641
2024-01-04T05:54:59.055Z,77.89306641
2024-01-04T05:56:09.398Z,78.2043457
2024-01-04T05:58:01.858Z,78.2043457
2024-01-04T05:59:02.309Z,78.82080078
2024-01-04T06:00:04.134Z,79.43725586
2024-01-04T06:01:04.788Z,80.05371094
2024-01-04T06:02:06.369Z,79.94995117
2024-01-04T06:03:07.112Z,79.78515625
2024-01-04T06:04:08.372Z,79.98657227
2024-01-04T06:05:09.273Z,80.60913086
2024-01-04T06:06:09.833Z,80.81054688
2024-01-04T06:07:11.435Z,81.01806641
2024-01-04T06:08:12.096Z,81.42700195
2024-01-04T06:09:13.519Z,81.84204102
2024-01-04T06:10:14.050Z,81.94580078
2024-01-04T06:11:14.528Z,82.35473633
2024-01-04T06:12:16.292Z,82.56225586
2024-01-04T06:13:18.631Z,83.17871094
2024-01-04T06:14:48.875Z,83.17871094
2024-01-04T06:15:49.483Z,83.2824707
2024-01-04T06:16:51.144Z,83.38623047
2024-01-04T06:17:52.813Z,83.48999023
2024-01-04T06:18:53.634Z,83.48999023
2024-01-04T06:19:54.058Z,83.59375
2024-01-04T06:20:55.058Z,83.69750977
2024-01-04T06:21:55.755Z,83.2824707
2024-01-04T06:22:57.085Z,83.2824707
2024-01-04T06:23:57.836Z,83.38623047
2024-01-04T06:24:58.332Z,83.07495117
2024-01-04T06:25:59.385Z,83.17871094
2024-01-04T06:27:01.054Z,83.38623047
2024-01-04T06:28:01.770Z,83.38623047
2024-01-04T06:29:02.248Z,83.38623047
2024-01-04T06:30:03.147Z,83.2824707
2024-01-04T06:31:12.874Z,82.45849609
2024-01-04T06:33:07.043Z,82.66601563
2024-01-04T06:34:07.742Z,82.66601563
2024-01-04T06:35:08.248Z,82.76977539
2024-01-04T06:36:09.927Z,82.76977539
2024-01-04T06:37:11.150Z,82.45849609
2024-01-04T06:38:11.649Z,82.56225586
2024-01-04T06:39:13.273Z,82.45849609
2024-01-04T06:40:13.927Z,82.56225586
2024-01-04T06:41:14.635Z,82.66601563
2024-01-04T06:42:16.456Z,82.35473633
2024-01-04T06:43:17.879Z,82.04956055
2024-01-04T06:44:49.037Z,81.94580078
2024-01-04T06:45:49.647Z,81.94580078
2024-01-04T06:46:50.265Z,82.04956055
2024-01-04T06:47:52.492Z,82.15332031
2024-01-04T06:48:53.804Z,82.04956055
2024-01-04T06:50:00.875Z,81.12182617
2024-01-04T06:50:55.686Z,81.22558594
2024-01-04T06:51:56.138Z,80.77392578
2024-01-04T06:52:57.664Z,80.56640625
2024-01-04T06:54:00.652Z,80.56640625
2024-01-04T06:54:59.426Z,80.26123047
2024-01-04T06:56:00.579Z,79.84619141
2024-01-04T06:57:01.579Z,79.84619141
2024-01-04T06:58:02.845Z,79.84619141
2024-01-04T06:59:04.709Z,79.84619141
2024-01-04T07:00:05.458Z,79.22973633
2024-01-04T07:01:06.586Z,79.12597656
2024-01-04T07:02:07.916Z,79.12597656
2024-01-04T07:03:08.576Z,78.92456055
2024-01-04T07:04:13.187Z,78.61328125
2024-01-04T07:06:11.015Z,78.71704102
2024-01-04T07:07:12.128Z,78.82080078
2024-01-04T07:08:13.883Z,78.61328125
2024-01-04T07:09:14.611Z,78.40576172
2024-01-04T07:10:16.116Z,78.30200195
2024-01-04T07:11:16.762Z,78.2043457
2024-01-04T07:12:18.153Z,78.10058594
2024-01-04T07:13:49.347Z,78.10058594
2024-01-04T07:14:53.569Z,78.27148438
2024-01-04T07:16:51.294Z,78.06396484
2024-01-04T07:17:53.369Z,77.96020508
2024-01-04T07:18:53.963Z,77.64892578
2024-01-04T07:19:54.626Z,77.44750977
2024-01-04T07:21:08.686Z,77.44750977
2024-01-04T07:23:00.236Z,77.34375
2024-01-04T07:24:01.679Z,77.34375
2024-01-04T07:25:02.298Z,77.55126953
2024-01-04T07:26:03.403Z,77.44750977
2024-01-04T07:27:04.269Z,77.13623047
2024-01-04T07:28:05.613Z,76.62353516
2024-01-04T07:29:06.125Z,76.62353516
2024-01-04T07:30:07.119Z,76.72729492
2024-01-04T07:31:07.616Z,76.51977539
2024-01-04T07:32:08.528Z,76.41601563
2024-01-04T07:33:10.290Z,76.51977539
2024-01-04T07:34:11.392Z,76.11083984
2024-01-04T07:35:16.702Z,76.21459961
2024-01-04T07:36:14.362Z,76.31225586
2024-01-04T07:37:14.737Z,76.31225586
2024-01-04T07:38:16.313Z,76.72729492
2024-01-04T07:39:17.244Z,76.92871094
2024-01-04T07:40:49.050Z,76.92871094
2024-01-04T07:41:50.823Z,77.0324707
2024-01-04T07:42:51.481Z,76.92871094
2024-01-04T07:43:52.035Z,76.92871094
2024-01-04T07:45:01.729Z,76.83105469
2024-01-04T07:45:53.944Z,76.72729492
2024-01-04T07:46:54.778Z,76.83105469
2024-01-04T07:47:56.717Z,76.72729492
2024-01-04T07:48:59.831Z,76.72729492
2024-01-04T07:49:57.847Z,76.72729492
2024-01-04T07:50:58.384Z,77.0324707
2024-01-04T07:52:00.437Z,77.34375
2024-01-04T07:53:02.283Z,77.55126953
2024-01-04T07:54:03.457Z,77.75268555
2024-01-04T07:55:07.321Z,77.0324707
2024-01-04T07:56:10.342Z,77.13623047
2024-01-04T07:58:07.866Z,77.0324707
2024-01-04T07:59:08.647Z,77.0324707
2024-01-04T08:00:09.351Z,77.34375
2024-01-04T08:01:11.164Z,77.0324707
2024-01-04T08:02:11.586Z,77.0324707
2024-01-04T08:03:12.515Z,76.00708008
2024-01-04T08:04:13.100Z,76.11083984
2024-01-04T08:05:13.946Z,76.00708008
2024-01-04T08:06:14.850Z,76.21459961
2024-01-04T08:07:15.511Z,76.34887695
2024-01-04T08:08:16.883Z,76.86157227
2024-01-04T08:09:53.678Z,76.34887695
2024-01-04T08:11:56.342Z,75.79956055
2024-01-04T08:13:52.307Z,75.0793457
2024-01-04T08:14:57.017Z,74.97558594
2024-01-04T08:16:54.762Z,74.67041016
2024-01-04T08:18:05.490Z,74.25537109
2024-01-04T08:19:58.979Z,74.67041016
2024-01-04T08:20:59.533Z,74.56665039
2024-01-04T08:21:59.850Z,74.5300293
2024-01-04T08:23:00.357Z,74.22485352
2024-01-04T08:24:02.496Z,74.5300293
2024-01-04T08:25:03.206Z,74.12109375
2024-01-04T08:26:04.103Z,74.01733398
2024-01-04T08:27:04.749Z,74.12109375
2024-01-04T08:28:06.099Z,73.80981445
2024-01-04T08:29:06.841Z,73.60839844
2024-01-04T08:30:07.442Z,73.70605469
2024-01-04T08:31:08.518Z,73.50463867
2024-01-04T08:32:09.105Z,73.70605469
2024-01-04T08:33:10.778Z,73.70605469
2024-01-04T08:34:11.186Z,73.29711914
2024-01-04T08:35:11.977Z,73.40087891
2024-01-04T08:36:13.532Z,73.29711914
2024-01-04T08:37:16.072Z,73.60839844
2024-01-04T08:38:16.482Z,73.08959961
2024-01-04T08:39:48.593Z,73.08959961
2024-01-04T08:40:50.114Z,72.88818359
2024-01-04T08:41:50.697Z,72.5769043
2024-01-04T08:42:59.831Z,72.5769043
2024-01-04T08:44:56.013Z,72.37548828
2024-01-04T08:45:57.343Z,72.47314453
2024-01-04T08:46:58.357Z,72.27172852
2024-01-04T08:48:06.104Z,72.78442383
2024-01-04T08:50:01.123Z,72.68066406
2024-01-04T08:51:03.136Z,72.5769043
2024-01-04T08:52:04.365Z,72.78442383
2024-01-04T08:53:05.640Z,73.08959961
2024-01-04T08:54:07.427Z,73.08959961
2024-01-04T08:55:09.406Z,72.99194336
2024-01-04T08:56:12.580Z,73.19335938
2024-01-04T08:58:13.500Z,73.29711914
2024-01-04T08:59:14.965Z,73.29711914
2024-01-04T09:00:15.986Z,73.50463867
2024-01-04T09:01:16.814Z,73.29711914
2024-01-04T09:02:49.745Z,73.29711914
2024-01-04T09:03:50.323Z,73.08959961
2024-01-04T09:04:50.883Z,72.88818359
2024-01-04T09:05:51.992Z,73.29711914
2024-01-04T09:06:52.649Z,73.08959961
2024-01-04T09:07:54.473Z,73.40087891
2024-01-04T09:08:55.964Z,73.50463867
2024-01-04T09:09:56.520Z,73.29711914
2024-01-04T09:10:58.096Z,73.29711914
2024-01-04T09:12:15.311Z,72.5769043
2024-01-04T09:14:00.462Z,72.99194336
2024-01-04T09:15:01.663Z,73.26660156
2024-01-04T09:16:02.997Z,72.74780273
2024-01-04T09:17:03.534Z,72.44262695
2024-01-04T09:18:06.761Z,71.82617188
2024-01-04T09:20:06.793Z,72.02758789
2024-01-04T09:21:07.708Z,72.02758789
2024-01-04T09:22:08.168Z,71.31347656
2024-01-04T09:23:10.024Z,71.2097168
2024-01-04T09:24:10.711Z,71.10595703
2024-01-04T09:25:11.917Z,71.31347656
2024-01-04T09:26:12.892Z,70.8984375
2024-01-04T09:27:13.419Z,70.8984375
2024-01-04T09:28:15.416Z,70.8984375
2024-01-04T09:29:47.229Z,71.00219727
2024-01-04T09:30:47.942Z,70.79467773
2024-01-04T09:31:48.472Z,70.55664063
2024-01-04T09:32:49.451Z,70.35522461
2024-01-04T09:33:50.139Z,70.35522461
2024-01-04T09:34:50.800Z,69.8425293
2024-01-04T09:35:51.923Z,69.94018555
2024-01-04T09:36:55.196Z,70.14770508
2024-01-04T09:38:56.237Z,69.42749023
2024-01-04T09:40:57.379Z,69.42749023
2024-01-04T09:41:57.662Z,69.32373047
2024-01-04T09:43:01.702Z,69.42749023
2024-01-04T09:43:59.718Z,69.01855469
2024-01-04T09:45:00.412Z,68.91479492
2024-01-04T09:46:01.121Z,69.12231445
2024-01-04T09:47:01.797Z,69.01855469
2024-01-04T09:48:02.605Z,67.99316406
2024-01-04T09:49:03.998Z,67.99316406
2024-01-04T09:50:04.454Z,68.09692383
2024-01-04T09:51:04.983Z,67.8894043
2024-01-04T09:52:10.669Z,67.78564453
2024-01-04T09:54:08.219Z,67.578125
2024-01-04T09:55:11.153Z,67.75512695
2024-01-04T09:57:10.155Z,67.54760742
2024-01-04T09:58:11.116Z,67.54760742
2024-01-04T09:59:12.629Z,67.65136719
2024-01-04T10:00:13.189Z,68.06030273
2024-01-04T10:01:13.874Z,67.75512695
2024-01-04T10:02:14.365Z,68.06030273
2024-01-04T10:03:46.807Z,67.96264648
2024-01-04T10:04:47.247Z,67.75512695
2024-01-04T10:05:48.083Z,67.96264648
2024-01-04T10:06:48.508Z,68.06030273
2024-01-04T10:07:49.932Z,68.1640625
2024-01-04T10:08:51.224Z,68.06030273
2024-01-04T10:09:51.633Z,67.85888672
2024-01-04T10:10:52.167Z,67.85888672
2024-01-04T10:11:53.663Z,67.75512695
2024-01-04T10:12:54.136Z,67.96264648
2024-01-04T10:13:55.675Z,67.96264648
2024-01-04T10:14:56.138Z,68.06030273
2024-01-04T10:15:56.875Z,68.06030273
2024-01-04T10:16:57.301Z,68.1640625
2024-01-04T10:17:58.205Z,68.06030273
2024-01-04T10:18:59.302Z,68.37158203
2024-01-04T10:19:59.644Z,68.67675781
2024-01-04T10:21:00.626Z,68.88427734
2024-01-04T10:22:01.099Z,68.78051758
2024-01-04T10:23:02.852Z,69.09179688
2024-01-04T10:24:03.528Z,69.09179688
2024-01-04T10:25:03.930Z,68.78051758
2024-01-04T10:26:04.697Z,68.78051758
2024-01-04T10:27:06.069Z,68.4753418
2024-01-04T10:29:07.096Z,68.4753418
2024-01-04T10:30:17.436Z,68.06030273
2024-01-04T10:32:15.307Z,67.34619141
2024-01-04T10:34:12.201Z,67.44384766
2024-01-04T10:35:12.855Z,67.44384766
2024-01-04T10:36:13.738Z,67.85888672
2024-01-04T10:37:14.641Z,67.96264648
2024-01-04T10:38:46.653Z,68.57299805
2024-01-04T10:39:47.588Z,69.05517578
2024-01-04T10:40:48.639Z,68.54248047
2024-01-04T10:41:50.147Z,68.34106445
2024-01-04T10:42:51.628Z,68.75
2024-01-04T10:43:52.393Z,68.71948242
2024-01-04T10:44:53.731Z,68.71948242
2024-01-04T10:45:54.849Z,68.61572266
2024-01-04T10:46:54.917Z,68.40820313
2024-01-04T10:47:56.593Z,67.79174805
2024-01-04T10:48:57.240Z,67.59033203
2024-01-04T10:49:57.654Z,67.27905273
2024-01-04T10:50:58.428Z,67.35229492
2024-01-04T10:51:59.877Z,67.24853516
2024-01-04T10:53:00.355Z,67.24853516
2024-01-04T10:54:08.270Z,67.24853516
2024-01-04T10:56:03.140Z,67.24853516
2024-01-04T10:57:04.112Z,67.14477539
2024-01-04T10:58:04.425Z,66.63208008
2024-01-04T10:59:05.599Z,66.53442383
2024-01-04T11:00:06.399Z,66.22314453
2024-01-04T11:01:06.976Z,65.58227539
2024-01-04T11:02:07.407Z,65.67993164
2024-01-04T11:03:09.209Z,65.71044922
2024-01-04T11:04:11.020Z,65.91796875
2024-01-04T11:05:10.267Z,66.02172852
2024-01-04T11:06:17.324Z,66.53442383
2024-01-04T11:08:13.656Z,66.63208008
2024-01-04T11:09:15.218Z,66.3269043
2024-01-04T11:10:46.065Z,66.53442383
2024-01-04T11:11:47.431Z,65.81420898
2024-01-04T11:12:49.288Z,65.91796875
2024-01-04T11:13:49.716Z,65.91796875
2024-01-04T11:14:50.544Z,66.25366211
2024-01-04T11:16:06.365Z,66.56494141
2024-01-04T11:17:08.275Z,66.66870117
2024-01-04T11:18:31.174Z,67.18139648
2024-01-04T11:19:55.709Z,67.27905273
2024-01-04T11:20:56.238Z,66.76635742
2024-01-04T11:21:58.725Z,66.56494141
2024-01-04T11:24:00.516Z,66.76635742
2024-01-04T11:25:06.608Z,66.87011719
2024-01-04T11:27:02.849Z,66.46118164
2024-01-04T11:28:03.944Z,66.97387695
2024-01-04T11:29:05.710Z,67.07763672
2024-01-04T11:30:06.893Z,67.07763672
2024-01-04T11:31:07.849Z,67.04711914
2024-01-04T11:32:14.087Z,66.43066406
2024-01-04T11:34:10.845Z,66.53442383
2024-01-04T11:35:11.368Z,66.53442383
2024-01-04T11:36:12.320Z,66.63208008
2024-01-04T11:37:12.824Z,66.02172852
2024-01-04T11:38:14.362Z,66.11938477
2024-01-04T11:39:45.894Z,66.02172852
2024-01-04T11:40:47.101Z,66.02172852
2024-01-04T11:41:47.547Z,66.02172852
2024-01-04T11:42:49.279Z,66.43066406
2024-01-04T11:43:49.838Z,65.81420898
2024-01-04T11:44:50.729Z,65.71044922
2024-01-04T11:45:51.661Z,65.81420898
2024-01-04T11:46:52.338Z,65.71044922
2024-01-04T11:47:53.615Z,65.91796875
2024-01-04T11:48:54.552Z,65.37475586
2024-01-04T11:50:05.335Z,64.96582031
2024-01-04T11:50:56.926Z,65.16723633
2024-01-04T11:51:58.115Z,65.27099609
2024-01-04T11:52:58.918Z,64.86206055
2024-01-04T11:53:59.679Z,64.75830078
2024-01-04T11:55:01.694Z,64.96582031
2024-01-04T11:56:03.157Z,64.75830078
2024-01-04T11:57:05.678Z,64.86206055
2024-01-04T11:58:05.117Z,64.65454102
2024-01-04T11:59:06.033Z,64.453125
2024-01-04T12:00:06.884Z,64.65454102
2024-01-04T12:01:09.387Z,64.65454102
2024-01-04T12:02:12.303Z,64.75830078
2024-01-04T12:04:12.959Z,65.06958008
2024-01-04T12:05:14.215Z,65.47851563
2024-01-04T12:06:45.872Z,65.58227539
2024-01-04T12:07:46.533Z,65.78369141